Bellville, South Africa
Current Conditions -  °F | °C
As of 7:00 AM on Thursday 23 Oct 2014 (Local Time) from FACT Reporting Station
Overcast Overcast  
Wind Chill: 61°   Ceiling: 1800
Heat Index: 61°   Visibility: 6mi
Dew Point: 55°   Wind: 3mph
Humidity: 82%   Direction: 60°ENE
Pressure: 30"   Gusts: NA
Location:  33.88°S, 18.6°E
Report Text: FACT 230500Z 06003KT 9999 OVC018 16/13 Q1016 NOSIG
Loading
Personal Weather Stations






























Interactive Weather Map
Tropical Storm Tracking
New forecast layout! Learn more

10-Day Weather Forecast

Advertisements
Track Severe Weather on mobile